Time;durP1;ratioP1;P1;durP2;ratioP2;P2;SDS_P1;SDS_P2;PMS_P1;PMS_P2;Temp;Humidity;BMP_temperature;BMP_pressure;BME280_temperature;BME280_humidity;BME280_pressure;Samples;Min_cycle;Max_cycle;Signal;HPM_P1;HPM_P2
2022/08/15 00:00:06;;;;;;;3.40;2.87;;;24.50;67.90;;;;;;6062817;23;20466;-75
2022/08/15 00:02:34;;;;;;;3.53;3.23;;;24.50;68.20;;;;;;6063268;23;20443;-74
2022/08/15 00:05:02;;;;;;;4.90;3.30;;;24.50;68.40;;;;;;6062284;23;20493;-75
2022/08/15 00:07:29;;;;;;;3.37;3.17;;;24.40;68.20;;;;;;6062925;23;20428;-75
2022/08/15 00:09:58;;;;;;;3.30;3.00;;;24.40;69.70;;;;;;6063020;23;20427;-74
2022/08/15 00:12:25;;;;;;;3.57;3.33;;;24.40;70.70;;;;;;6062688;23;20455;-75
2022/08/15 00:14:54;;;;;;;3.80;3.33;;;24.40;70.70;;;;;;6062660;23;20499;-75
2022/08/15 00:17:23;;;;;;;3.90;3.60;;;24.40;72.00;;;;;;6062675;23;20827;-75
2022/08/15 00:19:50;;;;;;;3.27;2.97;;;24.30;72.20;;;;;;6062908;23;20429;-74
2022/08/15 00:22:18;;;;;;;3.47;3.17;;;24.30;72.10;;;;;;6062991;23;20432;-74
2022/08/15 00:24:47;;;;;;;4.07;3.43;;;24.20;72.10;;;;;;6062486;23;20482;-75
2022/08/15 00:27:17;;;;;;;4.20;3.80;;;24.20;72.40;;;;;;6061981;23;20433;-75
2022/08/15 00:29:44;;;;;;;3.60;3.30;;;24.20;73.90;;;;;;6062944;23;20431;-74
2022/08/15 00:32:18;;;;;;;4.33;3.93;;;24.20;74.50;;;;;;6062277;23;20424;-74
2022/08/15 00:34:45;;;;;;;4.70;4.30;;;24.20;74.00;;;;;;6062466;23;20834;-74
2022/08/15 00:37:13;;;;;;;3.80;3.33;;;24.20;75.10;;;;;;6063028;23;20514;-75
2022/08/15 00:39:42;;;;;;;4.83;3.40;;;24.20;76.20;;;;;;6062433;23;20955;-74
2022/08/15 00:42:09;;;;;;;3.40;3.20;;;24.20;77.50;;;;;;6063078;23;20461;-75
2022/08/15 00:44:41;;;;;;;4.53;3.60;;;24.20;77.60;;;;;;6062864;23;20421;-74
2022/08/15 00:47:15;;;;;;;4.00;3.70;;;24.10;76.20;;;;;;6062336;23;20948;-75
2022/08/15 00:49:44;;;;;;;4.40;4.00;;;24.10;76.30;;;;;;6062743;23;20918;-75
2022/08/15 00:52:15;;;;;;;4.10;3.80;;;24.20;76.00;;;;;;6062195;23;20485;-74
2022/08/15 00:54:47;;;;;;;3.70;3.50;;;24.10;76.80;;;;;;6062221;23;20570;-75
2022/08/15 00:57:18;;;;;;;3.80;3.50;;;24.10;77.70;;;;;;6062538;23;20450;-74
2022/08/15 00:59:51;;;;;;;4.00;3.70;;;23.90;77.30;;;;;;6062268;23;20425;-75
2022/08/15 01:02:23;;;;;;;4.30;3.90;;;23.90;77.50;;;;;;6062564;23;20510;-74
2022/08/15 01:04:51;;;;;;;4.30;3.90;;;23.80;78.90;;;;;;6062687;23;20530;-74
2022/08/15 01:07:20;;;;;;;5.23;4.30;;;23.70;80.50;;;;;;6062797;23;20469;-75
2022/08/15 01:09:49;;;;;;;4.47;4.07;;;23.60;83.90;;;;;;6062687;23;20497;-74
2022/08/15 01:12:20;;;;;;;4.13;3.83;;;23.30;86.00;;;;;;6062341;23;20438;-74
2022/08/15 01:14:53;;;;;;;4.60;4.20;;;23.20;86.60;;;;;;6062402;23;20450;-74
2022/08/15 01:17:21;;;;;;;4.30;4.00;;;22.80;88.70;;;;;;6062616;23;20459;-74
2022/08/15 01:19:57;;;;;;;4.40;4.00;;;22.60;89.90;;;;;;6062412;23;20431;-74
2022/08/15 01:22:42;;;;;;;5.10;4.13;;;22.50;91.70;;;;;;6062582;23;20438;-74
2022/08/15 01:25:14;;;;;;;4.10;3.80;;;22.40;91.60;;;;;;6062269;23;20447;-75
2022/08/15 01:27:47;;;;;;;4.27;3.97;;;22.40;91.90;;;;;;6061948;23;20918;-74
2022/08/15 01:30:19;;;;;;;4.10;3.73;;;22.50;91.90;;;;;;6062836;23;20912;-74
2022/08/15 01:32:49;;;;;;;4.20;3.90;;;22.50;92.10;;;;;;6062570;23;20423;-75
2022/08/15 01:35:16;;;;;;;4.00;3.70;;;22.60;92.30;;;;;;6062134;23;20455;-74
2022/08/15 01:37:44;;;;;;;4.20;3.90;;;22.60;92.00;;;;;;6061974;23;20838;-75
2022/08/15 01:40:25;;;;;;;3.93;3.73;;;22.60;92.00;;;;;;6061803;23;20431;-74
2022/08/15 01:42:54;;;;;;;4.90;4.03;;;22.70;92.00;;;;;;6062240;23;20935;-75
2022/08/15 01:45:26;;;;;;;4.10;3.80;;;22.70;92.40;;;;;;6062008;23;20794;-74
2022/08/15 01:47:59;;;;;;;4.27;3.87;;;22.70;92.80;;;;;;6062146;23;20435;-75
2022/08/15 01:50:30;;;;;;;4.20;3.90;;;22.60;93.00;;;;;;6062331;23;20459;-74
2022/08/15 01:53:05;;;;;;;4.10;3.80;;;22.60;93.70;;;;;;6062647;23;20814;-75
2022/08/15 01:55:43;;;;;;;4.77;4.30;;;22.60;94.10;;;;;;6061580;23;20831;-74
2022/08/15 01:58:11;;;;;;;4.20;3.80;;;22.50;94.70;;;;;;6062101;23;20458;-75
2022/08/15 02:00:49;;;;;;;3.80;3.60;;;22.40;94.80;;;;;;6062232;23;20842;-75
2022/08/15 02:03:16;;;;;;;4.10;3.80;;;22.40;95.00;;;;;;6062534;23;20490;-75
2022/08/15 02:05:44;;;;;;;4.27;3.97;;;22.40;95.40;;;;;;6061513;23;20465;-75
2022/08/15 02:08:11;;;;;;;5.80;3.93;;;22.40;95.70;;;;;;6063272;23;20431;-75
2022/08/15 02:10:43;;;;;;;4.43;4.13;;;22.40;95.60;;;;;;6063468;23;20427;-74
2022/08/15 02:13:11;;;;;;;3.73;3.53;;;22.40;95.80;;;;;;6063697;23;20435;-75
2022/08/15 02:15:39;;;;;;;4.30;3.90;;;22.40;95.70;;;;;;6063154;23;20439;-74
2022/08/15 02:18:06;;;;;;;6.30;4.00;;;22.40;95.80;;;;;;6063361;23;20467;-74
2022/08/15 02:20:34;;;;;;;4.20;3.80;;;22.40;96.00;;;;;;6063170;23;20427;-75
2022/08/15 02:23:02;;;;;;;4.20;3.90;;;22.40;96.00;;;;;;6063581;23;20427;-74
2022/08/15 02:25:30;;;;;;;4.43;4.13;;;22.40;96.00;;;;;;6062827;23;20798;-74
2022/08/15 02:27:59;;;;;;;4.70;4.40;;;22.40;95.90;;;;;;6063396;23;21038;-75
2022/08/15 02:30:31;;;;;;;4.10;3.80;;;22.40;95.90;;;;;;6063442;23;20442;-74
2022/08/15 02:33:00;;;;;;;4.67;4.30;;;22.40;96.00;;;;;;6063625;23;20431;-75
2022/08/15 02:35:28;;;;;;;4.23;3.87;;;22.40;96.10;;;;;;6062449;23;20462;-75
2022/08/15 02:37:58;;;;;;;4.97;4.20;;;22.40;96.10;;;;;;6063210;23;20863;-74
2022/08/15 02:40:27;;;;;;;5.30;4.80;;;22.40;96.40;;;;;;6063027;23;20440;-74
2022/08/15 02:42:56;;;;;;;5.10;4.60;;;22.50;96.80;;;;;;6063279;23;20465;-75
2022/08/15 02:45:25;;;;;;;4.43;4.13;;;22.40;96.90;;;;;;6062725;23;20543;-75
2022/08/15 02:47:53;;;;;;;4.73;4.40;;;22.40;97.10;;;;;;6063556;23;20617;-75
2022/08/15 02:50:22;;;;;;;4.83;4.53;;;22.40;97.40;;;;;;6063260;23;20510;-74
2022/08/15 02:52:49;;;;;;;4.77;4.37;;;22.40;97.40;;;;;;6063211;23;20486;-75
2022/08/15 02:55:18;;;;;;;5.03;4.57;;;22.40;97.70;;;;;;6063229;23;20522;-75
2022/08/15 02:57:45;;;;;;;4.90;4.50;;;22.40;97.80;;;;;;6062667;23;20958;-75
2022/08/15 03:00:16;;;;;;;4.40;4.10;;;22.40;98.00;;;;;;6061682;23;20945;-74
2022/08/15 03:02:53;;;;;;;4.47;4.17;;;22.40;98.10;;;;;;6062235;23;20415;-75
2022/08/15 03:05:22;;;;;;;4.50;4.20;;;22.40;98.20;;;;;;6062403;23;20446;-74
2022/08/15 03:07:49;;;;;;;4.60;4.30;;;22.40;98.60;;;;;;6063400;23;20455;-75
2022/08/15 03:10:16;;;;;;;5.40;4.27;;;22.40;98.80;;;;;;6063283;23;20799;-74
2022/08/15 03:12:49;;;;;;;5.10;4.63;;;22.40;99.00;;;;;;6062811;23;20502;-75
2022/08/15 03:15:16;;;;;;;5.03;4.40;;;22.40;99.30;;;;;;6062575;23;20875;-74
2022/08/15 03:17:44;;;;;;;5.23;4.80;;;22.40;99.50;;;;;;6062798;23;20451;-75
2022/08/15 03:20:14;;;;;;;4.90;4.50;;;22.30;99.70;;;;;;6062993;23;20518;-75
2022/08/15 03:22:44;;;;;;;5.27;4.77;;;22.30;99.90;;;;;;6063160;23;20427;-75
2022/08/15 03:25:11;;;;;;;5.07;4.60;;;22.20;99.90;;;;;;6062518;23;20788;-76
2022/08/15 03:27:40;;;;;;;4.50;4.10;;;22.20;99.90;;;;;;6062870;23;20435;-75
2022/08/15 03:30:11;;;;;;;4.57;4.27;;;22.10;99.90;;;;;;6063089;23;20423;-75
2022/08/15 03:32:45;;;;;;;4.60;4.20;;;22.10;99.90;;;;;;6062764;23;20426;-75
2022/08/15 03:35:15;;;;;;;4.50;4.10;;;22.10;99.90;;;;;;6062872;23;20531;-75
2022/08/15 03:37:42;;;;;;;4.60;4.20;;;22.10;99.90;;;;;;6062848;23;20486;-75
2022/08/15 03:40:11;;;;;;;4.30;3.90;;;22.10;99.90;;;;;;6063214;23;20455;-75
2022/08/15 03:42:40;;;;;;;4.90;3.83;;;22.10;99.90;;;;;;6062794;23;20435;-75
2022/08/15 03:45:11;;;;;;;4.67;4.27;;;22.10;99.90;;;;;;6062412;23;20486;-75
2022/08/15 03:47:38;;;;;;;4.43;4.03;;;22.00;99.90;;;;;;6063033;23;20459;-75
2022/08/15 03:50:06;;;;;;;5.00;4.33;;;22.00;99.90;;;;;;6063396;23;20790;-75
2022/08/15 03:52:47;;;;;;;4.47;4.07;;;22.00;99.90;;;;;;6063303;23;20781;-74
2022/08/15 03:55:16;;;;;;;4.33;3.93;;;22.00;99.90;;;;;;6062315;23;20450;-75
2022/08/15 03:57:44;;;;;;;3.97;3.60;;;22.00;99.90;;;;;;6062473;23;20866;-75
2022/08/15 04:00:13;;;;;;;4.77;3.57;;;21.90;99.90;;;;;;6062738;23;20771;-75
2022/08/15 04:02:41;;;;;;;4.00;3.70;;;21.90;99.90;;;;;;6062845;23;20926;-75
2022/08/15 04:05:08;;;;;;;4.50;3.70;;;21.90;99.90;;;;;;6062389;23;20451;-75
2022/08/15 04:07:37;;;;;;;3.47;3.17;;;21.90;99.90;;;;;;6062882;23;20465;-75
2022/08/15 04:10:06;;;;;;;4.50;3.67;;;21.90;99.90;;;;;;6062876;23;20426;-75
2022/08/15 04:12:35;;;;;;;4.87;3.70;;;21.80;99.90;;;;;;6062310;23;20439;-74
2022/08/15 04:15:03;;;;;;;4.97;3.70;;;21.70;99.90;;;;;;6062464;23;20483;-74
2022/08/15 04:17:30;;;;;;;3.50;3.20;;;21.70;99.90;;;;;;6062570;23;20514;-74
2022/08/15 04:19:57;;;;;;;3.80;3.50;;;21.70;99.90;;;;;;6062852;23;20431;-75
2022/08/15 04:22:29;;;;;;;4.00;3.70;;;21.70;99.90;;;;;;6062660;23;20424;-74
2022/08/15 04:25:01;;;;;;;5.20;3.57;;;21.70;99.90;;;;;;6062331;23;20457;-75
2022/08/15 04:27:28;;;;;;;3.90;3.53;;;21.60;99.90;;;;;;6063145;23;20446;-76
2022/08/15 04:29:55;;;;;;;4.60;3.73;;;21.60;99.90;;;;;;6062279;23;20416;-74
2022/08/15 04:32:26;;;;;;;5.70;3.73;;;21.50;99.90;;;;;;6062813;23;20472;-75
2022/08/15 04:34:54;;;;;;;4.10;3.67;;;21.40;99.90;;;;;;6062182;23;20446;-75
2022/08/15 04:37:21;;;;;;;4.20;3.90;;;21.30;99.90;;;;;;6062549;23;20977;-76
2022/08/15 04:39:50;;;;;;;3.63;3.33;;;21.20;99.90;;;;;;6062980;23;20469;-76
2022/08/15 04:42:20;;;;;;;4.03;3.60;;;21.10;99.90;;;;;;6062881;23;20426;-75
2022/08/15 04:44:49;;;;;;;3.43;3.20;;;21.10;99.90;;;;;;6062589;23;20462;-75
2022/08/15 04:47:18;;;;;;;4.13;3.53;;;21.00;99.90;;;;;;6062533;23;20453;-75
2022/08/15 04:49:45;;;;;;;3.63;3.33;;;21.00;99.90;;;;;;6062339;23;20431;-75
2022/08/15 04:52:15;;;;;;;3.53;3.23;;;21.10;99.90;;;;;;6062740;23;20507;-75
2022/08/15 04:54:43;;;;;;;4.90;3.67;;;21.10;99.90;;;;;;6061979;23;20967;-76
2022/08/15 04:57:12;;;;;;;5.67;3.57;;;21.10;99.90;;;;;;6062517;23;20460;-75
2022/08/15 04:59:40;;;;;;;4.00;3.70;;;21.10;99.90;;;;;;6062575;23;20470;-75
2022/08/15 05:02:11;;;;;;;3.90;3.60;;;21.10;99.90;;;;;;6062718;23;20443;-75
2022/08/15 05:04:38;;;;;;;3.73;3.43;;;21.10;99.90;;;;;;6062347;23;20926;-74
2022/08/15 05:07:06;;;;;;;3.70;3.37;;;21.10;99.90;;;;;;6062446;23;20427;-75
2022/08/15 05:09:34;;;;;;;5.27;3.73;;;21.10;99.90;;;;;;6061928;23;20915;-75
2022/08/15 05:12:01;;;;;;;3.90;3.60;;;21.10;99.90;;;;;;6062040;23;20843;-75
2022/08/15 05:14:28;;;;;;;3.97;3.63;;;21.10;99.90;;;;;;6062340;23;20511;-74
2022/08/15 05:16:56;;;;;;;3.80;3.50;;;21.10;99.90;;;;;;6062445;23;20423;-75
2022/08/15 05:19:23;;;;;;;4.10;3.63;;;21.10;99.90;;;;;;6061901;23;20966;-75
2022/08/15 05:21:50;;;;;;;3.63;3.33;;;21.10;99.90;;;;;;6062404;23;20509;-74
2022/08/15 05:24:18;;;;;;;3.37;3.17;;;21.00;99.90;;;;;;6062508;23;20473;-74
2022/08/15 05:26:45;;;;;;;4.73;3.60;;;20.90;99.90;;;;;;6061602;23;20415;-74
2022/08/15 05:29:12;;;;;;;3.60;3.30;;;20.90;99.90;;;;;;6062072;23;20911;-74
2022/08/15 05:31:39;;;;;;;3.33;3.03;;;20.80;99.90;;;;;;6062237;23;20425;-74
2022/08/15 05:34:07;;;;;;;3.40;3.20;;;20.80;99.90;;;;;;6062141;23;20494;-75
2022/08/15 05:36:35;;;;;;;4.67;3.10;;;20.90;99.90;;;;;;6061899;23;20486;-74
2022/08/15 05:39:13;;;;;;;3.23;2.90;;;20.90;99.90;;;;;;6062200;23;20546;-75
2022/08/15 05:42:06;;;;;;;2.90;2.70;;;20.90;99.90;;;;;;6063475;23;20405;-75
2022/08/15 05:44:40;;;;;;;3.50;3.20;;;20.90;99.90;;;;;;6063635;23;20442;-74
2022/08/15 05:47:11;;;;;;;3.23;3.03;;;21.00;99.90;;;;;;6063458;23;20454;-74
2022/08/15 05:49:50;;;;;;;5.83;2.80;;;21.00;99.90;;;;;;6063710;23;20782;-74
2022/08/15 05:52:28;;;;;;;3.60;3.10;;;21.00;99.90;;;;;;6063193;23;20419;-74
2022/08/15 05:55:06;;;;;;;3.40;2.63;;;21.00;99.90;;;;;;6063298;23;20436;-74
2022/08/15 05:57:43;;;;;;;3.27;2.87;;;21.00;99.90;;;;;;6063478;23;20430;-75
2022/08/15 06:00:15;;;;;;;3.70;2.80;;;21.00;99.90;;;;;;6063394;23;20469;-74
2022/08/15 06:02:46;;;;;;;3.00;2.80;;;21.00;99.90;;;;;;6063253;23;20421;-75
2022/08/15 06:05:23;;;;;;;3.77;3.10;;;21.10;99.90;;;;;;6063384;23;20519;-76
2022/08/15 06:07:57;;;;;;;2.83;2.37;;;21.10;99.90;;;;;;6063238;23;20430;-75
2022/08/15 06:10:28;;;;;;;2.80;2.60;;;21.00;99.90;;;;;;6063366;23;20479;-76
2022/08/15 06:13:16;;;;;;;3.40;2.73;;;21.00;99.90;;;;;;6062876;23;20430;-76
2022/08/15 06:15:50;;;;;;;3.60;3.30;;;21.10;99.90;;;;;;6063160;23;20422;-76
2022/08/15 06:18:19;;;;;;;3.00;2.70;;;21.10;99.90;;;;;;6063236;23;20492;-76
2022/08/15 06:20:56;;;;;;;3.10;2.90;;;21.20;99.90;;;;;;6063420;23;20517;-76
2022/08/15 06:23:33;;;;;;;3.20;2.90;;;21.30;99.90;;;;;;6063006;23;20501;-76
2022/08/15 06:26:17;;;;;;;3.30;2.73;;;21.40;99.90;;;;;;6062841;23;20775;-74
2022/08/15 06:28:58;;;;;;;3.37;2.63;;;21.50;99.90;;;;;;6063295;23;20485;-74
2022/08/15 06:31:31;;;;;;;2.90;2.70;;;21.70;99.90;;;;;;6063382;23;20441;-75
2022/08/15 06:34:07;;;;;;;2.70;2.50;;;21.70;99.90;;;;;;6062745;23;20462;-75
2022/08/15 06:36:42;;;;;;;4.37;3.00;;;21.90;99.90;;;;;;6062784;23;20943;-75
2022/08/15 06:39:17;;;;;;;3.20;2.90;;;21.70;99.90;;;;;;6063466;23;20494;-76
2022/08/15 06:41:52;;;;;;;3.97;3.10;;;21.60;99.90;;;;;;6063169;23;20422;-75
2022/08/15 06:44:20;;;;;;;5.70;3.03;;;21.50;99.90;;;;;;6062725;23;20847;-75
2022/08/15 06:46:54;;;;;;;2.97;2.77;;;21.40;99.90;;;;;;6062625;23;20427;-75
2022/08/15 06:49:23;;;;;;;3.30;3.00;;;21.40;99.90;;;;;;6063360;23;20462;-75
2022/08/15 06:51:52;;;;;;;4.30;3.00;;;21.30;99.90;;;;;;6062668;23;20442;-75
2022/08/15 06:54:23;;;;;;;4.67;3.13;;;21.30;99.90;;;;;;6062946;23;20493;-75
2022/08/15 06:56:57;;;;;;;4.43;3.13;;;21.20;99.90;;;;;;6062846;23;20431;-75
2022/08/15 06:59:35;;;;;;;3.80;2.93;;;21.20;99.90;;;;;;6062945;23;20458;-75
2022/08/15 07:02:19;;;;;;;3.00;2.80;;;21.20;99.90;;;;;;6062994;23;20445;-75
2022/08/15 07:04:58;;;;;;;4.13;2.63;;;21.20;99.90;;;;;;6062420;23;20799;-75
2022/08/15 07:07:35;;;;;;;2.80;2.50;;;21.20;99.90;;;;;;6063366;23;20778;-75
2022/08/15 07:10:11;;;;;;;2.70;2.40;;;21.20;99.90;;;;;;6062671;23;20541;-75
2022/08/15 07:12:45;;;;;;;3.23;3.03;;;21.30;99.90;;;;;;6062505;23;20789;-75
2022/08/15 07:15:21;;;;;;;3.20;2.60;;;21.20;99.90;;;;;;6062550;23;20796;-75
2022/08/15 07:17:52;;;;;;;4.07;2.80;;;21.30;99.90;;;;;;6063299;23;20446;-75
2022/08/15 07:20:19;;;;;;;3.63;2.97;;;21.30;99.90;;;;;;6062630;23;20467;-75
2022/08/15 07:22:47;;;;;;;3.60;3.00;;;21.30;99.90;;;;;;6062658;23;20419;-75
2022/08/15 07:25:18;;;;;;;3.27;2.67;;;21.50;99.90;;;;;;6062559;23;20442;-75
2022/08/15 07:27:58;;;;;;;2.73;2.53;;;21.60;99.90;;;;;;6062837;23;20438;-75
2022/08/15 07:30:38;;;;;;;3.20;2.80;;;21.70;99.90;;;;;;6062913;23;20415;-75
2022/08/15 07:33:05;;;;;;;2.80;2.53;;;21.70;99.90;;;;;;6062871;23;20418;-75
2022/08/15 07:35:35;;;;;;;2.63;2.30;;;21.70;99.90;;;;;;6062588;23;20449;-75
2022/08/15 07:38:06;;;;;;;3.10;2.80;;;21.70;99.90;;;;;;6062939;23;20478;-75
2022/08/15 07:40:36;;;;;;;4.00;2.47;;;21.70;99.90;;;;;;6062507;23;20498;-75
2022/08/15 07:43:25;;;;;;;3.50;2.40;;;21.80;99.90;;;;;;6062436;23;20455;-76
2022/08/15 07:46:08;;;;;;;2.80;2.50;;;22.00;99.90;;;;;;6062550;23;20458;-75
2022/08/15 07:48:35;;;;;;;2.43;2.23;;;22.30;99.90;;;;;;6062871;23;20494;-75
2022/08/15 07:51:06;;;;;;;2.80;2.50;;;22.50;99.90;;;;;;6062651;23;20481;-75
2022/08/15 07:53:35;;;;;;;2.80;2.60;;;22.70;99.90;;;;;;6062711;23;20471;-75
2022/08/15 07:56:06;;;;;;;2.60;2.40;;;23.00;99.90;;;;;;6061963;23;20427;-75
2022/08/15 07:58:35;;;;;;;2.67;2.47;;;23.50;99.90;;;;;;6062632;23;20423;-76
2022/08/15 08:01:11;;;;;;;2.90;2.60;;;23.90;99.90;;;;;;6062452;23;20466;-76
2022/08/15 08:03:41;;;;;;;2.77;2.20;;;24.10;99.90;;;;;;6062159;23;20439;-75
2022/08/15 08:06:19;;;;;;;2.17;2.00;;;24.00;99.90;;;;;;6062553;23;20462;-76
2022/08/15 08:09:03;;;;;;;3.30;2.30;;;24.20;99.90;;;;;;6062842;23;20434;-76
2022/08/15 08:11:42;;;;;;;2.57;2.07;;;24.80;99.90;;;;;;6062636;23;20431;-76
2022/08/15 08:14:16;;;;;;;2.90;2.23;;;25.60;99.90;;;;;;6062734;23;20455;-76
2022/08/15 08:16:52;;;;;;;2.57;2.37;;;25.90;99.90;;;;;;6062739;23;20507;-76
2022/08/15 08:19:25;;;;;;;2.77;2.57;;;26.40;99.80;;;;;;6062501;23;20818;-76
2022/08/15 08:22:02;;;;;;;2.60;2.40;;;26.70;99.30;;;;;;6062421;23;20450;-76
2022/08/15 08:24:39;;;;;;;2.70;2.50;;;26.40;98.20;;;;;;6062476;23;20442;-76
2022/08/15 08:27:20;;;;;;;2.60;2.40;;;26.20;98.40;;;;;;6062412;23;20426;-75
2022/08/15 08:29:54;;;;;;;2.70;2.50;;;26.00;99.30;;;;;;6062436;23;20423;-76
2022/08/15 08:32:31;;;;;;;2.80;2.57;;;26.00;99.20;;;;;;6062388;23;20517;-76
2022/08/15 08:35:07;;;;;;;3.60;3.10;;;25.90;99.00;;;;;;6061959;23;20447;-76
2022/08/15 08:37:41;;;;;;;2.50;2.30;;;26.00;99.70;;;;;;6062291;23;20907;-77
2022/08/15 08:43:10;;;;;;;2.67;2.40;;;27.10;98.00;;;;;;6062255;23;20450;-76
2022/08/15 08:45:44;;;;;;;3.23;2.93;;;27.50;97.00;;;;;;6062303;23;20415;-75
2022/08/15 08:48:33;;;;;;;3.30;2.97;;;27.80;96.50;;;;;;6062491;23;20423;-76
2022/08/15 08:51:08;;;;;;;3.40;3.10;;;28.20;96.40;;;;;;6062303;23;20431;-76
2022/08/15 08:53:45;;;;;;;4.57;3.27;;;28.80;95.30;;;;;;6062389;23;20474;-76
2022/08/15 08:56:19;;;;;;;2.50;2.30;;;29.00;92.60;;;;;;6062229;23;20423;-76
2022/08/15 08:58:52;;;;;;;3.30;3.00;;;28.60;92.90;;;;;;6062165;23;20505;-76
2022/08/15 09:01:24;;;;;;;4.33;3.27;;;28.40;93.60;;;;;;6062345;23;20419;-76
2022/08/15 09:03:56;;;;;;;4.00;3.70;;;28.60;93.90;;;;;;6062234;23;21029;-76
2022/08/15 09:06:27;;;;;;;3.43;3.10;;;28.90;93.40;;;;;;6062455;23;20411;-76
2022/08/15 09:09:01;;;;;;;5.00;3.70;;;29.40;92.70;;;;;;6062093;23;20427;-76
2022/08/15 09:11:37;;;;;;;3.93;2.63;;;29.80;91.30;;;;;;6062046;23;20949;-76
2022/08/15 09:14:14;;;;;;;4.10;3.10;;;30.00;90.30;;;;;;6061706;23;20846;-76
2022/08/15 09:16:42;;;;;;;3.27;3.03;;;30.00;89.60;;;;;;6061404;23;20485;-76
2022/08/15 09:19:15;;;;;;;3.77;2.90;;;29.90;88.40;;;;;;6061985;23;20489;-76
2022/08/15 09:21:44;;;;;;;3.73;3.43;;;29.80;88.50;;;;;;6062381;23;20427;-76
2022/08/15 09:24:12;;;;;;;3.13;2.83;;;30.00;88.10;;;;;;6062103;23;20470;-76
2022/08/15 09:26:48;;;;;;;3.00;2.80;;;30.20;86.00;;;;;;6061762;23;20423;-75
2022/08/15 09:29:22;;;;;;;3.40;3.10;;;30.20;84.60;;;;;;6061918;23;20830;-75
2022/08/15 09:32:05;;;;;;;3.13;2.93;;;30.10;83.50;;;;;;6062262;23;20481;-76
2022/08/15 09:34:55;;;;;;;2.27;2.07;;;30.20;83.00;;;;;;6061972;23;20816;-75
2022/08/15 09:37:33;;;;;;;2.93;2.70;;;30.20;79.20;;;;;;6062394;23;20480;-75
2022/08/15 09:40:22;;;;;;;2.80;2.60;;;29.40;81.90;;;;;;6062054;23;20553;-76
2022/08/15 09:43:19;;;;;;;2.70;2.50;;;29.40;83.90;;;;;;6061651;23;20471;-76
2022/08/15 09:46:04;;;;;;;3.77;2.70;;;29.80;82.90;;;;;;6061616;23;20423;-75
2022/08/15 09:48:47;;;;;;;2.80;2.40;;;29.70;80.00;;;;;;6062164;23;20518;-75
2022/08/15 09:51:29;;;;;;;2.73;2.53;;;29.40;81.50;;;;;;6062162;23;20470;-75
2022/08/15 09:54:06;;;;;;;3.30;2.50;;;29.40;81.30;;;;;;6061313;23;20475;-76
2022/08/15 09:56:37;;;;;;;2.60;2.40;;;29.60;81.20;;;;;;6061834;23;20415;-76
2022/08/15 09:59:10;;;;;;;2.50;2.30;;;30.00;80.50;;;;;;6061614;23;20431;-76
2022/08/15 10:01:48;;;;;;;2.67;2.20;;;30.20;79.20;;;;;;6061897;23;20495;-76
2022/08/15 10:04:18;;;;;;;4.33;2.57;;;30.40;79.00;;;;;;6061222;23;20481;-73
2022/08/15 10:06:57;;;;;;;2.73;2.53;;;30.40;78.40;;;;;;6061312;23;20427;-74
2022/08/15 10:09:35;;;;;;;2.90;2.70;;;30.30;77.10;;;;;;6060948;23;20423;-74
2022/08/15 10:12:22;;;;;;;3.30;3.00;;;30.40;75.30;;;;;;6059249;23;20435;-75
2022/08/15 10:15:03;;;;;;;2.50;2.30;;;30.30;75.80;;;;;;6060905;23;20446;-84
2022/08/15 10:17:45;;;;;;;2.23;2.03;;;30.50;74.20;;;;;;6061439;23;20942;-79
2022/08/15 10:20:48;;;;;;;2.40;2.20;;;30.70;74.20;;;;;;6061201;23;20966;-79
2022/08/15 10:23:16;;;;;;;2.50;2.30;;;30.60;75.00;;;;;;6061624;23;20796;-78
2022/08/15 10:25:46;;;;;;;2.33;2.23;;;31.00;73.00;;;;;;6061405;23;20419;-74
2022/08/15 10:28:23;;;;;;;2.60;2.40;;;30.30;73.20;;;;;;6062128;23;20823;-74
2022/08/15 10:31:20;;;;;;;2.43;2.00;;;30.10;74.20;;;;;;6062567;23;20922;-73
2022/08/15 10:33:52;;;;;;;2.37;2.13;;;30.40;73.20;;;;;;6062726;23;20440;-74
2022/08/15 10:36:26;;;;;;;2.30;2.20;;;30.60;72.50;;;;;;6062965;23;20416;-73
2022/08/15 10:39:02;;;;;;;3.70;1.80;;;30.80;72.00;;;;;;6063172;23;20414;-73
2022/08/15 10:41:36;;;;;;;2.10;2.00;;;31.00;70.40;;;;;;6063179;23;20546;-74
2022/08/15 10:44:12;;;;;;;1.93;1.83;;;31.20;70.30;;;;;;6062680;23;20841;-75
2022/08/15 10:46:57;;;;;;;2.10;2.00;;;31.60;69.70;;;;;;6062267;23;20469;-75
2022/08/15 10:49:31;;;;;;;2.90;1.87;;;31.80;68.80;;;;;;6062941;23;20415;-76
2022/08/15 10:52:26;;;;;;;2.03;1.83;;;32.20;67.70;;;;;;6062809;23;20435;-73
2022/08/15 10:55:17;;;;;;;1.93;1.80;;;32.50;65.60;;;;;;6062235;23;20911;-77
2022/08/15 10:57:48;;;;;;;1.70;1.60;;;32.90;66.10;;;;;;6063152;23;20426;-77
2022/08/15 11:00:26;;;;;;;2.10;1.90;;;33.50;64.60;;;;;;6062824;23;20462;-77
2022/08/15 11:02:55;;;;;;;1.97;1.80;;;33.90;62.00;;;;;;6063116;23;20471;-77
2022/08/15 11:05:26;;;;;;;2.53;2.20;;;34.10;60.30;;;;;;6062493;23;20925;-78
2022/08/15 11:07:55;;;;;;;1.87;1.77;;;34.00;59.70;;;;;;6062587;23;20478;-77
2022/08/15 11:10:25;;;;;;;2.10;1.80;;;33.70;60.10;;;;;;6062675;23;20442;-76
2022/08/15 11:12:57;;;;;;;2.03;1.83;;;33.10;60.70;;;;;;6062165;23;20510;-76
2022/08/15 11:15:27;;;;;;;2.73;1.73;;;33.10;61.20;;;;;;6063200;23;20419;-76
2022/08/15 11:18:03;;;;;;;4.53;2.37;;;33.50;61.40;;;;;;6062733;23;20463;-72
2022/08/15 11:20:37;;;;;;;2.90;1.90;;;34.00;59.80;;;;;;6062572;23;20501;-72
2022/08/15 11:23:05;;;;;;;1.60;1.50;;;34.00;58.20;;;;;;6062859;23;20521;-73
2022/08/15 11:25:34;;;;;;;2.37;1.93;;;34.20;59.10;;;;;;6062595;23;20419;-73
2022/08/15 11:28:11;;;;;;;2.03;1.90;;;34.40;58.70;;;;;;6062982;23;20430;-72
2022/08/15 11:30:41;;;;;;;2.00;1.90;;;34.50;58.10;;;;;;6062337;23;20450;-72
2022/08/15 11:33:21;;;;;;;2.90;1.80;;;34.70;57.90;;;;;;6063039;23;20590;-69
2022/08/15 11:35:49;;;;;;;4.90;2.07;;;35.20;57.40;;;;;;6062039;23;20427;-73
2022/08/15 11:38:17;;;;;;;2.40;2.03;;;35.70;56.30;;;;;;6062780;23;20437;-73
2022/08/15 11:40:52;;;;;;;2.40;1.97;;;35.70;55.40;;;;;;6062608;23;20478;-73
2022/08/15 11:43:19;;;;;;;2.70;1.90;;;34.80;55.40;;;;;;6062681;23;20783;-74
2022/08/15 11:45:50;;;;;;;3.30;2.23;;;33.90;57.30;;;;;;6062511;23;20432;-73
2022/08/15 11:48:25;;;;;;;2.20;1.93;;;33.50;57.50;;;;;;6062585;23;20478;-75
2022/08/15 11:50:59;;;;;;;2.10;1.70;;;33.60;56.50;;;;;;6062878;23;20455;-76
2022/08/15 11:53:32;;;;;;;1.80;1.70;;;34.00;57.00;;;;;;6062578;23;20442;-75
2022/08/15 11:56:01;;;;;;;2.97;2.20;;;34.60;56.40;;;;;;6062593;23;20428;-77
2022/08/15 11:58:35;;;;;;;2.60;2.23;;;35.10;55.20;;;;;;6062679;23;20415;-76
2022/08/15 12:01:23;;;;;;;3.53;1.97;;;35.60;54.40;;;;;;6062276;23;20545;-75
2022/08/15 12:04:04;;;;;;;1.90;1.80;;;35.80;53.00;;;;;;6063064;23;20776;-76
2022/08/15 12:06:34;;;;;;;2.50;2.27;;;35.80;53.20;;;;;;6062597;23;20787;-70
2022/08/15 12:09:12;;;;;;;3.00;2.00;;;35.80;52.70;;;;;;6062377;23;20428;-70
2022/08/15 12:11:46;;;;;;;2.37;2.17;;;35.80;53.30;;;;;;6062788;23;20439;-70
2022/08/15 12:14:18;;;;;;;1.83;1.73;;;35.80;53.10;;;;;;6062635;23;20934;-78
2022/08/15 12:16:49;;;;;;;2.50;2.30;;;36.20;53.30;;;;;;6062401;23;20427;-73
2022/08/15 12:19:42;;;;;;;2.87;2.13;;;36.40;52.10;;;;;;6062418;23;20428;-72
2022/08/15 12:22:14;;;;;;;2.43;1.97;;;36.60;52.30;;;;;;6062861;23;20467;-73
2022/08/15 12:24:55;;;;;;;2.47;2.27;;;36.40;51.70;;;;;;6062766;23;20438;-75
2022/08/15 12:27:22;;;;;;;2.20;2.07;;;36.00;51.10;;;;;;6062598;23;20434;-71
2022/08/15 12:29:50;;;;;;;2.10;2.00;;;35.60;51.80;;;;;;6062361;23;20914;-68
2022/08/15 12:32:17;;;;;;;3.53;2.10;;;35.40;52.00;;;;;;6062033;23;20423;-69
2022/08/15 12:34:47;;;;;;;2.03;1.90;;;35.20;52.80;;;;;;6062496;23;20435;-69
2022/08/15 12:37:18;;;;;;;3.93;2.30;;;35.20;53.00;;;;;;6062427;23;21088;-69
2022/08/15 12:39:47;;;;;;;4.10;2.00;;;35.50;52.40;;;;;;6062207;23;20420;-69
2022/08/15 12:42:17;;;;;;;2.63;2.20;;;35.70;52.30;;;;;;6062430;23;20512;-69
2022/08/15 12:44:47;;;;;;;4.33;2.10;;;36.10;51.60;;;;;;6062212;23;20444;-70
2022/08/15 12:47:14;;;;;;;2.60;2.40;;;36.60;50.70;;;;;;6062498;23;20920;-70
2022/08/15 12:49:41;;;;;;;2.90;2.33;;;36.70;50.00;;;;;;6061788;23;20791;-70
2022/08/15 12:52:10;;;;;;;2.60;2.40;;;36.90;50.10;;;;;;6062614;23;20438;-69
2022/08/15 12:54:37;;;;;;;2.50;2.33;;;37.00;48.70;;;;;;6062015;23;20463;-69
2022/08/15 12:57:04;;;;;;;2.93;2.43;;;36.80;48.90;;;;;;6061906;23;20431;-69
2022/08/15 12:59:32;;;;;;;2.13;2.03;;;36.70;48.50;;;;;;6062412;23;20493;-69
2022/08/15 13:02:00;;;;;;;2.57;2.13;;;36.30;48.70;;;;;;6062602;23;20463;-69
2022/08/15 13:04:27;;;;;;;2.60;2.30;;;36.10;48.40;;;;;;6062715;23;20455;-69
2022/08/15 13:06:56;;;;;;;2.47;2.27;;;35.90;49.30;;;;;;6061914;23;20424;-69
2022/08/15 13:09:27;;;;;;;3.00;2.67;;;35.90;49.40;;;;;;6062361;23;20478;-69
2022/08/15 13:11:55;;;;;;;3.00;2.80;;;36.00;49.30;;;;;;6062025;23;20934;-69
2022/08/15 13:14:23;;;;;;;2.70;2.50;;;35.80;49.40;;;;;;6061968;23;20776;-69
2022/08/15 13:16:50;;;;;;;2.80;2.60;;;35.70;48.90;;;;;;6062144;23;20429;-70